All Star Atlas — H3OV — position and weather

sailwx.info

Track history (hours):
 
Tides and Currents Weather Stations Pressure Air Temp Water Temp Dewpoint Dewpoint Depression Visibility Wind Speed Wind Dir Waves Ship Positions

All Star Atlas

Last reported at 2018-Feb-23 23:58 UTC. Time now 2018-Feb-24 14:21 UTC.
Position N 20°00' E 072°03'.

Length 199 m; draft 7.2 m.

Type: Cargo ship. MMSI: 355737000.

Date/timePositionNaut miles runAvg speedWind from/ knotsBaromVisibWave heightAir tempDewpointWater temp
2018-Feb-23 23:58N 20°00' E 072°03'613.7
2018-Feb-23 23:30N 20°03' E 071°57'713.6
2018-Feb-23 22:59N 20°05' E 071°50'613.3
2018-Feb-23 22:30N 20°10' E 071°46'713.7
2018-Feb-23 22:00N 20°17' E 071°45'714.5
2018-Feb-23 21:30N 20°24' E 071°45'714.3
2018-Feb-23 21:00N 20°31' E 071°47'714.9
2018-Feb-23 20:30N 20°34' E 071°54'4215.7
2018-Feb-23 17:51N 21°11' E 072°15'514.0
2018-Feb-23 17:29N 21°15' E 072°17'1712.6
2018-Feb-23 16:11N 21°30' E 072°25'211.7
2018-Feb-23 16:00N 21°32' E 072°26'510.7
2018-Feb-23 15:30N 21°37' E 072°28'5 8.9
2018-Feb-23 14:59N 21°41' E 072°30'0 0.0
2018-Feb-23 03:45N 21°41' E 072°31'0 0.0
2018-Feb-23 01:09N 21°41' E 072°31'0 0.0
2018-Feb-22 04:21N 21°41' E 072°31'0 0.0
2018-Feb-22 03:57N 21°41' E 072°31'0 0.0
2018-Feb-21 22:03N 21°41' E 072°31'0 0.0
2018-Feb-21 21:33N 21°41' E 072°31'0 0.0
2018-Feb-21 21:27N 21°41' E 072°31'0 0.0
2018-Feb-21 20:57N 21°41' E 072°31'0 0.0
2018-Feb-21 20:27N 21°41' E 072°31'0 0.0
2018-Feb-21 19:39N 21°41' E 072°31'0 0.0
2018-Feb-21 15:21N 21°41' E 072°31'0 0.0
2018-Feb-21 14:57N 21°41' E 072°31'0 0.0
2018-Feb-21 14:27N 21°41' E 072°31'0 0.0
2018-Feb-21 13:33N 21°41' E 072°31'0 0.0
2018-Feb-21 13:29N 21°41' E 072°31'0 0.5
2018-Feb-21 12:59N 21°41' E 072°30'1 1.4
2018-Feb-21 12:16N 21°42' E 072°29'0 1.3
2018-Feb-21 11:58N 21°42' E 072°29'2 4.7
2018-Feb-21 11:30N 21°40' E 072°28'5 8.8
2018-Feb-21 10:59N 21°36' E 072°28'611.8
2018-Feb-21 10:30N 21°30' E 072°26'611.4
2018-Feb-21 10:00N 21°25' E 072°24'712.3
2018-Feb-21 09:28N 21°20' E 072°20'1312.1
2018-Feb-21 08:24N 21°08' E 072°14'511.1
2018-Feb-21 07:57N 21°03' E 072°12'8 9.5
2018-Feb-21 07:04N 20°56' E 072°08'1 8.7
2018-Feb-21 06:59N 20°55' E 072°08'7 8.4
2018-Feb-21 06:10N 20°48' E 072°06'1 9.0
2018-Feb-21 06:00N 20°47' E 072°06'4 8.7
2018-Feb-21 05:30N 20°43' E 072°03'4 8.0
2018-Feb-21 04:59N 20°40' E 072°01'9 9.2
2018-Feb-21 03:59N 20°35' E 071°53'5 9.5
2018-Feb-21 03:30N 20°33' E 071°48'5 9.7
2018-Feb-21 02:59N 20°31' E 071°43'510.3
2018-Feb-21 02:30N 20°31' E 071°38'510.1
2018-Feb-21 01:59N 20°31' E 071°32'2 2.7
2018-Feb-21 01:22N 20°32' E 071°31'0 0.3
2018-Feb-21 00:52N 20°32' E 071°31'0 0.0
2018-Feb-20 18:11N 20°32' E 071°31'0 2.0
2018-Feb-20 18:00N 20°31' E 071°31'810.4
2018-Feb-20 17:14N 20°24' E 071°34'312.0
2018-Feb-20 16:59N 20°22' E 071°36'711.9
2018-Feb-20 16:24N 20°15' E 071°39'511.8
2018-Feb-20 16:00N 20°11' E 071°42'8212.0
2018-Feb-20 09:11N 19°03' E 072°30'212.8
2018-Feb-20 09:00N 19°01' E 072°31'  
Track history (hours):
 
Tides and Currents Weather Stations Pressure Air Temp Water Temp Dewpoint Dewpoint Depression Visibility Wind Speed Wind Dir Waves Ship Positions

All Star Atlas

Last reported at 2018-Feb-23 23:58 UTC. Time now 2018-Feb-24 14:21 UTC.
Position N 20°00' E 072°03'.

Length 199 m; draft 7.2 m.

Type: Cargo ship. MMSI: 355737000.

Date/timePositionNaut miles runAvg speedWind from/ knotsBaromVisibWave heightAir tempDewpointWater temp
2018-Feb-23 23:58N 20°00' E 072°03'613.7
2018-Feb-23 23:30N 20°03' E 071°57'713.6
2018-Feb-23 22:59N 20°05' E 071°50'613.3
2018-Feb-23 22:30N 20°10' E 071°46'713.7
2018-Feb-23 22:00N 20°17' E 071°45'714.5
2018-Feb-23 21:30N 20°24' E 071°45'714.3
2018-Feb-23 21:00N 20°31' E 071°47'714.9
2018-Feb-23 20:30N 20°34' E 071°54'4215.7
2018-Feb-23 17:51N 21°11' E 072°15'514.0
2018-Feb-23 17:29N 21°15' E 072°17'1712.6
2018-Feb-23 16:11N 21°30' E 072°25'211.7
2018-Feb-23 16:00N 21°32' E 072°26'510.7
2018-Feb-23 15:30N 21°37' E 072°28'5 8.9
2018-Feb-23 14:59N 21°41' E 072°30'0 0.0
2018-Feb-23 03:45N 21°41' E 072°31'0 0.0
2018-Feb-23 01:09N 21°41' E 072°31'0 0.0
2018-Feb-22 04:21N 21°41' E 072°31'0 0.0
2018-Feb-22 03:57N 21°41' E 072°31'0 0.0
2018-Feb-21 22:03N 21°41' E 072°31'0 0.0
2018-Feb-21 21:33N 21°41' E 072°31'0 0.0
2018-Feb-21 21:27N 21°41' E 072°31'0 0.0
2018-Feb-21 20:57N 21°41' E 072°31'0 0.0
2018-Feb-21 20:27N 21°41' E 072°31'0 0.0
2018-Feb-21 19:39N 21°41' E 072°31'0 0.0
2018-Feb-21 15:21N 21°41' E 072°31'0 0.0
2018-Feb-21 14:57N 21°41' E 072°31'0 0.0
2018-Feb-21 14:27N 21°41' E 072°31'0 0.0
2018-Feb-21 13:33N 21°41' E 072°31'0 0.0
2018-Feb-21 13:29N 21°41' E 072°31'0 0.5
2018-Feb-21 12:59N 21°41' E 072°30'1 1.4
2018-Feb-21 12:16N 21°42' E 072°29'0 1.3
2018-Feb-21 11:58N 21°42' E 072°29'2 4.7
2018-Feb-21 11:30N 21°40' E 072°28'5 8.8
2018-Feb-21 10:59N 21°36' E 072°28'611.8
2018-Feb-21 10:30N 21°30' E 072°26'611.4
2018-Feb-21 10:00N 21°25' E 072°24'712.3
2018-Feb-21 09:28N 21°20' E 072°20'1312.1
2018-Feb-21 08:24N 21°08' E 072°14'511.1
2018-Feb-21 07:57N 21°03' E 072°12'8 9.5
2018-Feb-21 07:04N 20°56' E 072°08'1 8.7
2018-Feb-21 06:59N 20°55' E 072°08'7 8.4
2018-Feb-21 06:10N 20°48' E 072°06'1 9.0
2018-Feb-21 06:00N 20°47' E 072°06'4 8.7
2018-Feb-21 05:30N 20°43' E 072°03'4 8.0
2018-Feb-21 04:59N 20°40' E 072°01'9 9.2
2018-Feb-21 03:59N 20°35' E 071°53'5 9.5
2018-Feb-21 03:30N 20°33' E 071°48'5 9.7
2018-Feb-21 02:59N 20°31' E 071°43'510.3
2018-Feb-21 02:30N 20°31' E 071°38'510.1
2018-Feb-21 01:59N 20°31' E 071°32'2 2.7
2018-Feb-21 01:22N 20°32' E 071°31'0 0.3
2018-Feb-21 00:52N 20°32' E 071°31'0 0.0
2018-Feb-20 18:11N 20°32' E 071°31'0 2.0
2018-Feb-20 18:00N 20°31' E 071°31'810.4
2018-Feb-20 17:14N 20°24' E 071°34'312.0
2018-Feb-20 16:59N 20°22' E 071°36'711.9
2018-Feb-20 16:24N 20°15' E 071°39'511.8
2018-Feb-20 16:00N 20°11' E 071°42'8212.0
2018-Feb-20 09:11N 19°03' E 072°30'212.8
2018-Feb-20 09:00N 19°01' E 072°31'  

Dump ship's entire track history